sensor_id;sensor_type;location;lat;lon;timestamp;P1;durP1;ratioP1;P2;durP2;ratioP2
1887;SDS011;944;51.574;6.980;2023-02-22T03:44:29;474.37;;;47.23;;
1887;SDS011;944;51.574;6.980;2023-02-22T04:36:21;151.87;;;31.43;;
1887;SDS011;944;51.574;6.980;2023-02-22T04:51:15;344.33;;;35.67;;
1887;SDS011;944;51.574;6.980;2023-02-22T04:54:25;323.93;;;44.93;;
1887;SDS011;944;51.574;6.980;2023-02-22T05:15:37;147.13;;;41.43;;
1887;SDS011;944;51.574;6.980;2023-02-22T05:21:49;237.93;;;41.33;;
1887;SDS011;944;51.574;6.980;2023-02-22T05:24:42;283.93;;;46.43;;
1887;SDS011;944;51.574;6.980;2023-02-22T05:27:40;189.37;;;42.20;;
1887;SDS011;944;51.574;6.980;2023-02-22T05:30:25;316.27;;;41.20;;
1887;SDS011;944;51.574;6.980;2023-02-22T05:33:53;130.07;;;38.60;;
1887;SDS011;944;51.574;6.980;2023-02-22T05:38:33;232.40;;;42.60;;
1887;SDS011;944;51.574;6.980;2023-02-22T05:44:27;226.03;;;41.33;;
1887;SDS011;944;51.574;6.980;2023-02-22T05:51:33;216.77;;;40.73;;
1887;SDS011;944;51.574;6.980;2023-02-22T05:54:57;287.97;;;44.60;;
1887;SDS011;944;51.574;6.980;2023-02-22T05:57:39;207.37;;;39.83;;
1887;SDS011;944;51.574;6.980;2023-02-22T06:00:33;216.80;;;40.10;;
1887;SDS011;944;51.574;6.980;2023-02-22T06:03:09;141.97;;;36.77;;
1887;SDS011;944;51.574;6.980;2023-02-22T06:16:34;130.57;;;35.57;;
1887;SDS011;944;51.574;6.980;2023-02-22T11:02:01;40.17;;;19.80;;
1887;SDS011;944;51.574;6.980;2023-02-22T11:04:49;41.03;;;23.20;;
1887;SDS011;944;51.574;6.980;2023-02-22T11:07:29;39.47;;;23.40;;
1887;SDS011;944;51.574;6.980;2023-02-22T11:15:24;35.93;;;20.23;;
1887;SDS011;944;51.574;6.980;2023-02-22T11:17:56;38.57;;;20.97;;
1887;SDS011;944;51.574;6.980;2023-02-22T11:20:26;42.57;;;21.57;;
1887;SDS011;944;51.574;6.980;2023-02-22T11:23:05;34.40;;;20.77;;
1887;SDS011;944;51.574;6.980;2023-02-22T13:14:48;12.23;;;7.17;;
1887;SDS011;944;51.574;6.980;2023-02-22T13:17:22;10.93;;;6.50;;
1887;SDS011;944;51.574;6.980;2023-02-22T15:36:37;22.30;;;12.03;;
1887;SDS011;944;51.574;6.980;2023-02-22T15:39:23;21.20;;;11.07;;
1887;SDS011;944;51.574;6.980;2023-02-22T15:42:04;17.40;;;11.07;;
1887;SDS011;944;51.574;6.980;2023-02-22T15:44:48;21.60;;;11.80;;
1887;SDS011;944;51.574;6.980;2023-02-22T15:47:35;24.97;;;11.90;;
1887;SDS011;944;51.574;6.980;2023-02-22T15:53:48;23.27;;;11.60;;
1887;SDS011;944;51.574;6.980;2023-02-22T15:56:18;27.83;;;11.00;;
1887;SDS011;944;51.574;6.980;2023-02-22T15:58:57;23.50;;;11.40;;
1887;SDS011;944;51.574;6.980;2023-02-22T16:05:09;21.30;;;11.30;;
1887;SDS011;944;51.574;6.980;2023-02-22T16:07:44;21.73;;;11.03;;
1887;SDS011;944;51.574;6.980;2023-02-22T16:10:25;22.57;;;10.77;;
1887;SDS011;944;51.574;6.980;2023-02-22T16:13:07;17.60;;;10.40;;
1887;SDS011;944;51.574;6.980;2023-02-22T16:15:57;26.20;;;11.57;;
1887;SDS011;944;51.574;6.980;2023-02-22T16:18:28;18.60;;;10.97;;
1887;SDS011;944;51.574;6.980;2023-02-22T16:20:58;28.73;;;11.27;;
1887;SDS011;944;51.574;6.980;2023-02-22T16:23:30;25.83;;;11.30;;
1887;SDS011;944;51.574;6.980;2023-02-22T16:26:19;23.40;;;11.40;;
1887;SDS011;944;51.574;6.980;2023-02-22T16:28:56;23.97;;;12.10;;
1887;SDS011;944;51.574;6.980;2023-02-22T16:31:26;23.80;;;12.43;;
1887;SDS011;944;51.574;6.980;2023-02-22T16:33:57;16.90;;;11.23;;
1887;SDS011;944;51.574;6.980;2023-02-22T16:36:35;25.27;;;12.37;;
1887;SDS011;944;51.574;6.980;2023-02-22T16:39:05;28.70;;;13.30;;
1887;SDS011;944;51.574;6.980;2023-02-22T16:41:34;24.60;;;12.20;;
1887;SDS011;944;51.574;6.980;2023-02-22T16:44:23;24.67;;;12.23;;
1887;SDS011;944;51.574;6.980;2023-02-22T16:46:54;27.23;;;13.67;;
1887;SDS011;944;51.574;6.980;2023-02-22T16:49:28;26.50;;;13.47;;
1887;SDS011;944;51.574;6.980;2023-02-22T16:51:55;23.20;;;13.53;;
1887;SDS011;944;51.574;6.980;2023-02-22T16:54:28;27.23;;;12.80;;
1887;SDS011;944;51.574;6.980;2023-02-22T16:57:17;22.13;;;12.60;;
1887;SDS011;944;51.574;6.980;2023-02-22T16:59:46;22.70;;;13.50;;
1887;SDS011;944;51.574;6.980;2023-02-22T17:02:16;21.60;;;11.83;;
1887;SDS011;944;51.574;6.980;2023-02-22T17:04:45;19.93;;;11.80;;
1887;SDS011;944;51.574;6.980;2023-02-22T17:07:18;18.30;;;11.97;;
1887;SDS011;944;51.574;6.980;2023-02-22T17:09:50;33.70;;;14.63;;
1887;SDS011;944;51.574;6.980;2023-02-22T17:19:55;22.53;;;12.70;;
1887;SDS011;944;51.574;6.980;2023-02-22T17:22:24;17.00;;;12.00;;
1887;SDS011;944;51.574;6.980;2023-02-22T17:28:12;29.23;;;13.73;;
1887;SDS011;944;51.574;6.980;2023-02-22T17:30:58;25.70;;;14.47;;
1887;SDS011;944;51.574;6.980;2023-02-22T17:33:50;21.60;;;12.90;;
1887;SDS011;944;51.574;6.980;2023-02-22T17:40:55;25.70;;;14.80;;
1887;SDS011;944;51.574;6.980;2023-02-22T17:43:28;19.93;;;13.43;;
1887;SDS011;944;51.574;6.980;2023-02-22T17:46:09;23.10;;;15.10;;
1887;SDS011;944;51.574;6.980;2023-02-22T17:48:43;24.57;;;14.50;;
1887;SDS011;944;51.574;6.980;2023-02-22T17:51:13;22.40;;;14.20;;
1887;SDS011;944;51.574;6.980;2023-02-22T17:53:40;23.17;;;14.43;;
1887;SDS011;944;51.574;6.980;2023-02-22T17:59:50;25.30;;;14.47;;
1887;SDS011;944;51.574;6.980;2023-02-22T18:02:19;22.93;;;14.50;;
1887;SDS011;944;51.574;6.980;2023-02-22T18:04:48;23.60;;;15.23;;
1887;SDS011;944;51.574;6.980;2023-02-22T18:07:18;24.93;;;16.13;;
1887;SDS011;944;51.574;6.980;2023-02-22T18:09:49;23.10;;;15.30;;
1887;SDS011;944;51.574;6.980;2023-02-22T18:12:29;25.87;;;14.77;;
1887;SDS011;944;51.574;6.980;2023-02-22T18:14:57;23.23;;;15.37;;
1887;SDS011;944;51.574;6.980;2023-02-22T18:17:24;25.70;;;16.53;;
1887;SDS011;944;51.574;6.980;2023-02-22T18:19:52;27.20;;;17.83;;
1887;SDS011;944;51.574;6.980;2023-02-22T18:26:00;24.10;;;16.40;;
1887;SDS011;944;51.574;6.980;2023-02-22T18:28:28;26.27;;;16.77;;
1887;SDS011;944;51.574;6.980;2023-02-22T18:30:57;31.53;;;17.90;;
1887;SDS011;944;51.574;6.980;2023-02-22T18:33:24;31.30;;;18.80;;
1887;SDS011;944;51.574;6.980;2023-02-22T18:35:52;21.77;;;16.37;;
1887;SDS011;944;51.574;6.980;2023-02-22T18:38:20;23.27;;;17.33;;
1887;SDS011;944;51.574;6.980;2023-02-22T18:40:49;30.30;;;17.63;;
1887;SDS011;944;51.574;6.980;2023-02-22T18:43:24;43.63;;;19.03;;
1887;SDS011;944;51.574;6.980;2023-02-22T18:45:54;32.43;;;19.83;;
1887;SDS011;944;51.574;6.980;2023-02-22T18:48:32;32.50;;;22.13;;
1887;SDS011;944;51.574;6.980;2023-02-22T18:51:00;35.07;;;23.70;;
1887;SDS011;944;51.574;6.980;2023-02-22T18:53:28;38.87;;;23.57;;
1887;SDS011;944;51.574;6.980;2023-02-22T18:55:55;39.83;;;25.07;;
1887;SDS011;944;51.574;6.980;2023-02-22T18:58:22;45.37;;;26.90;;
1887;SDS011;944;51.574;6.980;2023-02-22T19:00:49;37.57;;;26.30;;
1887;SDS011;944;51.574;6.980;2023-02-22T19:03:17;46.00;;;27.07;;
1887;SDS011;944;51.574;6.980;2023-02-22T19:05:45;41.30;;;26.53;;
1887;SDS011;944;51.574;6.980;2023-02-22T19:08:14;47.57;;;27.73;;
1887;SDS011;944;51.574;6.980;2023-02-22T19:10:42;46.83;;;29.37;;
1887;SDS011;944;51.574;6.980;2023-02-22T19:13:13;42.33;;;26.80;;
1887;SDS011;944;51.574;6.980;2023-02-22T19:15:40;42.23;;;28.57;;
1887;SDS011;944;51.574;6.980;2023-02-22T19:18:14;46.00;;;29.73;;
1887;SDS011;944;51.574;6.980;2023-02-22T19:20:44;44.10;;;28.70;;
1887;SDS011;944;51.574;6.980;2023-02-22T19:23:20;49.53;;;30.07;;
1887;SDS011;944;51.574;6.980;2023-02-22T19:25:47;44.33;;;29.30;;
1887;SDS011;944;51.574;6.980;2023-02-22T19:28:15;45.30;;;27.83;;
1887;SDS011;944;51.574;6.980;2023-02-22T19:30:45;53.10;;;28.90;;
1887;SDS011;944;51.574;6.980;2023-02-22T19:37:04;46.10;;;29.20;;
1887;SDS011;944;51.574;6.980;2023-02-22T19:39:35;49.13;;;28.97;;
1887;SDS011;944;51.574;6.980;2023-02-22T19:42:02;52.33;;;28.73;;
1887;SDS011;944;51.574;6.980;2023-02-22T19:44:36;43.70;;;30.13;;
1887;SDS011;944;51.574;6.980;2023-02-22T19:47:06;44.23;;;29.00;;
1887;SDS011;944;51.574;6.980;2023-02-22T19:49:34;52.43;;;29.67;;
1887;SDS011;944;51.574;6.980;2023-02-22T19:52:07;51.53;;;29.83;;
1887;SDS011;944;51.574;6.980;2023-02-22T19:54:37;47.07;;;30.87;;
1887;SDS011;944;51.574;6.980;2023-02-22T19:57:04;47.00;;;31.00;;
1887;SDS011;944;51.574;6.980;2023-02-22T19:59:31;42.50;;;28.83;;
1887;SDS011;944;51.574;6.980;2023-02-22T20:01:58;46.23;;;28.20;;
1887;SDS011;944;51.574;6.980;2023-02-22T20:04:25;46.53;;;30.07;;
1887;SDS011;944;51.574;6.980;2023-02-22T20:06:54;49.20;;;28.30;;
1887;SDS011;944;51.574;6.980;2023-02-22T20:09:25;46.67;;;26.90;;
1887;SDS011;944;51.574;6.980;2023-02-22T20:12:01;48.03;;;28.53;;
1887;SDS011;944;51.574;6.980;2023-02-22T20:14:29;45.73;;;28.40;;
1887;SDS011;944;51.574;6.980;2023-02-22T20:16:57;46.63;;;27.77;;
1887;SDS011;944;51.574;6.980;2023-02-22T20:19:28;50.07;;;27.90;;
1887;SDS011;944;51.574;6.980;2023-02-22T20:21:55;43.13;;;28.33;;
1887;SDS011;944;51.574;6.980;2023-02-22T20:24:28;42.10;;;26.50;;
1887;SDS011;944;51.574;6.980;2023-02-22T20:26:55;41.83;;;26.73;;
1887;SDS011;944;51.574;6.980;2023-02-22T20:29:22;40.47;;;28.23;;
1887;SDS011;944;51.574;6.980;2023-02-22T20:35:35;48.33;;;28.20;;
1887;SDS011;944;51.574;6.980;2023-02-22T20:38:02;44.93;;;29.03;;
1887;SDS011;944;51.574;6.980;2023-02-22T20:40:31;46.30;;;28.70;;
1887;SDS011;944;51.574;6.980;2023-02-22T20:43:00;52.60;;;30.83;;
1887;SDS011;944;51.574;6.980;2023-02-22T20:45:28;45.93;;;29.77;;
1887;SDS011;944;51.574;6.980;2023-02-22T20:47:56;46.00;;;30.07;;
1887;SDS011;944;51.574;6.980;2023-02-22T20:50:23;52.00;;;28.77;;
1887;SDS011;944;51.574;6.980;2023-02-22T20:52:51;43.10;;;29.07;;
1887;SDS011;944;51.574;6.980;2023-02-22T20:55:24;44.57;;;27.70;;
1887;SDS011;944;51.574;6.980;2023-02-22T20:57:57;42.93;;;28.70;;
1887;SDS011;944;51.574;6.980;2023-02-22T21:00:24;52.47;;;31.00;;
1887;SDS011;944;51.574;6.980;2023-02-22T21:02:54;42.67;;;29.03;;
1887;SDS011;944;51.574;6.980;2023-02-22T21:05:21;43.70;;;29.90;;
1887;SDS011;944;51.574;6.980;2023-02-22T21:07:48;40.03;;;27.20;;
1887;SDS011;944;51.574;6.980;2023-02-22T21:10:18;49.40;;;29.20;;
1887;SDS011;944;51.574;6.980;2023-02-22T21:12:59;44.77;;;29.63;;
1887;SDS011;944;51.574;6.980;2023-02-22T21:15:26;47.57;;;30.77;;
1887;SDS011;944;51.574;6.980;2023-02-22T21:17:53;48.87;;;30.77;;
1887;SDS011;944;51.574;6.980;2023-02-22T21:20:21;44.57;;;28.63;;
1887;SDS011;944;51.574;6.980;2023-02-22T21:23:26;48.57;;;29.03;;
1887;SDS011;944;51.574;6.980;2023-02-22T21:33:35;49.50;;;32.20;;
1887;SDS011;944;51.574;6.980;2023-02-22T21:36:05;48.13;;;31.23;;
1887;SDS011;944;51.574;6.980;2023-02-22T21:38:43;46.53;;;29.80;;
1887;SDS011;944;51.574;6.980;2023-02-22T21:41:17;45.90;;;30.73;;
1887;SDS011;944;51.574;6.980;2023-02-22T21:43:47;51.80;;;33.33;;
1887;SDS011;944;51.574;6.980;2023-02-22T21:46:16;46.67;;;32.07;;
1887;SDS011;944;51.574;6.980;2023-02-22T21:48:45;58.37;;;35.87;;
1887;SDS011;944;51.574;6.980;2023-02-22T21:51:13;46.60;;;32.07;;
1887;SDS011;944;51.574;6.980;2023-02-22T21:53:43;56.50;;;32.80;;
1887;SDS011;944;51.574;6.980;2023-02-22T21:56:11;53.43;;;34.50;;
1887;SDS011;944;51.574;6.980;2023-02-22T21:58:42;58.83;;;33.30;;
1887;SDS011;944;51.574;6.980;2023-02-22T22:01:15;52.43;;;34.40;;
1887;SDS011;944;51.574;6.980;2023-02-22T22:03:42;55.03;;;35.13;;
1887;SDS011;944;51.574;6.980;2023-02-22T22:06:14;57.23;;;35.53;;
1887;SDS011;944;51.574;6.980;2023-02-22T22:08:41;55.07;;;35.00;;
1887;SDS011;944;51.574;6.980;2023-02-22T22:11:11;56.83;;;36.27;;
1887;SDS011;944;51.574;6.980;2023-02-22T22:13:44;52.53;;;35.43;;
1887;SDS011;944;51.574;6.980;2023-02-22T22:16:14;72.50;;;35.40;;
1887;SDS011;944;51.574;6.980;2023-02-22T22:18:48;54.27;;;34.60;;
1887;SDS011;944;51.574;6.980;2023-02-22T22:21:16;58.03;;;36.73;;
1887;SDS011;944;51.574;6.980;2023-02-22T22:23:44;56.50;;;36.47;;
1887;SDS011;944;51.574;6.980;2023-02-22T22:26:20;57.70;;;37.70;;
1887;SDS011;944;51.574;6.980;2023-02-22T22:28:50;59.20;;;37.10;;
1887;SDS011;944;51.574;6.980;2023-02-22T22:31:19;54.73;;;36.40;;
1887;SDS011;944;51.574;6.980;2023-02-22T22:33:49;55.10;;;37.20;;
1887;SDS011;944;51.574;6.980;2023-02-22T22:36:20;61.10;;;38.37;;
1887;SDS011;944;51.574;6.980;2023-02-22T22:38:48;56.77;;;36.03;;
1887;SDS011;944;51.574;6.980;2023-02-22T22:41:25;63.30;;;39.00;;
1887;SDS011;944;51.574;6.980;2023-02-22T22:43:53;65.33;;;37.67;;
1887;SDS011;944;51.574;6.980;2023-02-22T22:46:23;62.53;;;40.67;;
1887;SDS011;944;51.574;6.980;2023-02-22T22:48:51;61.37;;;40.03;;
1887;SDS011;944;51.574;6.980;2023-02-22T22:51:18;62.83;;;39.17;;
1887;SDS011;944;51.574;6.980;2023-02-22T22:53:47;65.33;;;40.20;;
1887;SDS011;944;51.574;6.980;2023-02-22T22:56:35;66.17;;;42.30;;
1887;SDS011;944;51.574;6.980;2023-02-22T22:59:06;67.37;;;41.47;;
1887;SDS011;944;51.574;6.980;2023-02-22T23:05:20;68.60;;;42.87;;
1887;SDS011;944;51.574;6.980;2023-02-22T23:08:02;68.30;;;43.80;;
1887;SDS011;944;51.574;6.980;2023-02-22T23:10:30;71.43;;;43.40;;
1887;SDS011;944;51.574;6.980;2023-02-22T23:13:03;71.90;;;43.10;;
1887;SDS011;944;51.574;6.980;2023-02-22T23:15:31;78.13;;;44.10;;
1887;SDS011;944;51.574;6.980;2023-02-22T23:17:58;68.80;;;41.83;;
1887;SDS011;944;51.574;6.980;2023-02-22T23:20:26;71.87;;;41.93;;
1887;SDS011;944;51.574;6.980;2023-02-22T23:22:53;69.10;;;44.10;;
1887;SDS011;944;51.574;6.980;2023-02-22T23:25:22;70.07;;;43.17;;
1887;SDS011;944;51.574;6.980;2023-02-22T23:27:50;70.10;;;43.30;;
1887;SDS011;944;51.574;6.980;2023-02-22T23:30:21;70.77;;;44.07;;
1887;SDS011;944;51.574;6.980;2023-02-22T23:32:49;76.67;;;46.00;;
1887;SDS011;944;51.574;6.980;2023-02-22T23:39:03;72.17;;;44.00;;
1887;SDS011;944;51.574;6.980;2023-02-22T23:41:31;70.07;;;45.03;;
1887;SDS011;944;51.574;6.980;2023-02-22T23:44:00;76.00;;;45.30;;
1887;SDS011;944;51.574;6.980;2023-02-22T23:46:28;74.17;;;44.83;;
1887;SDS011;944;51.574;6.980;2023-02-22T23:48:57;75.73;;;45.57;;
1887;SDS011;944;51.574;6.980;2023-02-22T23:51:26;71.70;;;45.37;;
1887;SDS011;944;51.574;6.980;2023-02-22T23:54:04;73.43;;;46.30;;
1887;SDS011;944;51.574;6.980;2023-02-22T23:56:33;79.10;;;45.27;;
1887;SDS011;944;51.574;6.980;2023-02-22T23:59:01;87.10;;;50.47;;
